Time;durP1;ratioP1;P1;durP2;ratioP2;P2;SDS_P1;SDS_P2;PMS_P1;PMS_P2;Temp;Humidity;BMP_temperature;BMP_pressure;BME280_temperature;BME280_humidity;BME280_pressure;Samples;Min_cycle;Max_cycle;Signal;HPM_P1;HPM_P2
2023/08/12 00:01:27;;;;;;;0.20;0.20;;;;;;;;;;5053442;28;20448;-80
2023/08/12 00:03:54;;;;;;;0.25;0.25;;;;;;;;;;5052376;28;20033;-80
2023/08/12 00:06:20;;;;;;;0.30;0.25;;;;;;;;;;5052747;28;20021;-80
2023/08/12 00:08:46;;;;;;;0.17;0.17;;;;;;;;;;5052938;28;20029;-81
2023/08/12 00:11:12;;;;;;;0.45;0.20;;;;;;;;;;5052944;28;20025;-80
2023/08/12 00:13:38;;;;;;;0.17;0.17;;;;;;;;;;5053263;28;20078;-81
2023/08/12 00:16:04;;;;;;;0.52;0.47;;;;;;;;;;5052715;28;20054;-80
2023/08/12 00:18:36;;;;;;;0.40;0.30;;;;;;;;;;5052462;28;20523;-80
2023/08/12 00:21:04;;;;;;;0.30;0.10;;;;;;;;;;5052529;28;20076;-80
2023/08/12 00:23:30;;;;;;;0.35;0.35;;;;;;;;;;5052346;28;20083;-81
2023/08/12 00:25:58;;;;;;;0.32;0.32;;;;;;;;;;5052560;28;20025;-80
2023/08/12 00:28:24;;;;;;;0.20;0.20;;;;;;;;;;5052859;28;20021;-80
2023/08/12 00:30:50;;;;;;;0.13;0.13;;;;;;;;;;5052198;28;20485;-80
2023/08/12 00:33:18;;;;;;;0.10;0.10;;;;;;;;;;5051922;28;20032;-80
2023/08/12 00:35:44;;;;;;;0.32;0.32;;;;;;;;;;5052401;28;20028;-80
2023/08/12 00:38:10;;;;;;;0.30;0.30;;;;;;;;;;5052576;28;20033;-80
2023/08/12 00:40:36;;;;;;;0.15;0.15;;;;;;;;;;5052517;28;20068;-80
2023/08/12 00:43:03;;;;;;;0.20;0.20;;;;;;;;;;5052616;28;20100;-81
2023/08/12 00:45:29;;;;;;;0.10;0.10;;;;;;;;;;5052399;28;20112;-80
2023/08/12 00:47:55;;;;;;;0.20;0.20;;;;;;;;;;5052271;28;20025;-80
2023/08/12 00:50:22;;;;;;;0.30;0.30;;;;;;;;;;5052286;28;20100;-80
2023/08/12 00:52:48;;;;;;;0.00;0.00;;;;;;;;;;5051990;28;20032;-80
2023/08/12 00:55:14;;;;;;;1.38;0.68;;;;;;;;;;5052103;28;20489;-80
2023/08/12 00:57:40;;;;;;;0.57;0.30;;;;;;;;;;5052483;28;20060;-80
2023/08/12 01:00:07;;;;;;;0.10;0.10;;;;;;;;;;5052005;28;20075;-80
2023/08/12 01:02:34;;;;;;;0.20;0.20;;;;;;;;;;5051548;28;20071;-80
2023/08/12 01:05:00;;;;;;;0.10;0.10;;;;;;;;;;5052287;28;20095;-80
2023/08/12 01:07:26;;;;;;;0.10;0.10;;;;;;;;;;5051774;28;20491;-80
2023/08/12 01:09:52;;;;;;;0.63;0.63;;;;;;;;;;5052156;28;20035;-80
2023/08/12 01:12:21;;;;;;;0.28;0.28;;;;;;;;;;5051974;28;20164;-80
2023/08/12 01:14:57;;;;;;;0.20;0.20;;;;;;;;;;5051978;28;20541;-80
2023/08/12 01:17:23;;;;;;;0.10;0.10;;;;;;;;;;5051518;28;20079;-80
2023/08/12 01:19:50;;;;;;;0.10;0.10;;;;;;;;;;5051728;28;20033;-80
2023/08/12 01:22:17;;;;;;;0.20;0.10;;;;;;;;;;5051957;28;20053;-80
2023/08/12 01:24:44;;;;;;;0.30;0.30;;;;;;;;;;5051712;28;20033;-80
2023/08/12 01:27:11;;;;;;;0.22;0.17;;;;;;;;;;5051832;28;20043;-80
2023/08/12 01:29:41;;;;;;;0.22;0.22;;;;;;;;;;5052242;28;20032;-80
2023/08/12 01:32:09;;;;;;;0.35;0.35;;;;;;;;;;5051231;28;20409;-80
2023/08/12 01:34:51;;;;;;;0.38;0.38;;;;;;;;;;5051822;28;20021;-80
2023/08/12 01:37:29;;;;;;;0.30;0.22;;;;;;;;;;5051461;28;20029;-80
2023/08/12 01:39:55;;;;;;;0.10;0.10;;;;;;;;;;5051589;28;20032;-81
2023/08/12 01:42:21;;;;;;;0.30;0.30;;;;;;;;;;5054795;28;20490;-81
2023/08/12 01:44:48;;;;;;;0.75;0.30;;;;;;;;;;5055294;28;20563;-80
2023/08/12 01:47:14;;;;;;;0.13;0.13;;;;;;;;;;5055574;28;20036;-80
2023/08/12 01:49:40;;;;;;;0.35;0.35;;;;;;;;;;5055544;28;20033;-80
2023/08/12 01:52:06;;;;;;;0.38;0.38;;;;;;;;;;5055595;28;20439;-81
2023/08/12 01:54:34;;;;;;;0.10;0.10;;;;;;;;;;5055403;28;20025;-80
2023/08/12 01:57:08;;;;;;;0.10;0.10;;;;;;;;;;5055542;28;20036;-80
2023/08/12 01:59:34;;;;;;;0.20;0.20;;;;;;;;;;5054935;28;20032;-80
2023/08/12 02:02:00;;;;;;;0.10;0.10;;;;;;;;;;5055359;28;20044;-81
2023/08/12 02:04:26;;;;;;;0.63;0.63;;;;;;;;;;5055211;28;20107;-80
2023/08/12 02:06:53;;;;;;;0.45;0.32;;;;;;;;;;5055387;28;20033;-80
2023/08/12 02:09:19;;;;;;;0.25;0.25;;;;;;;;;;5055385;28;20432;-80
2023/08/12 02:11:45;;;;;;;0.55;0.40;;;;;;;;;;5053854;28;20025;-80
2023/08/12 02:14:11;;;;;;;0.20;0.20;;;;;;;;;;5054763;28;20021;-80
2023/08/12 02:16:37;;;;;;;0.45;0.45;;;;;;;;;;5055029;28;20029;-80
2023/08/12 02:19:03;;;;;;;0.30;0.30;;;;;;;;;;5054735;28;20029;-80
2023/08/12 02:21:29;;;;;;;0.30;0.30;;;;;;;;;;5055368;28;20513;-80
2023/08/12 02:23:55;;;;;;;0.20;0.20;;;;;;;;;;5054934;28;20070;-80
2023/08/12 02:26:21;;;;;;;0.45;0.40;;;;;;;;;;5054805;28;20025;-81
2023/08/12 02:28:47;;;;;;;1.67;0.65;;;;;;;;;;5054429;28;20024;-80
2023/08/12 02:31:13;;;;;;;0.52;0.20;;;;;;;;;;5055103;28;20044;-80
2023/08/12 02:33:39;;;;;;;0.82;0.82;;;;;;;;;;5054636;28;20017;-80
2023/08/12 02:36:05;;;;;;;0.30;0.30;;;;;;;;;;5054553;28;20029;-80
2023/08/12 02:38:31;;;;;;;0.80;0.68;;;;;;;;;;5054834;28;20389;-81
2023/08/12 02:40:57;;;;;;;0.50;0.50;;;;;;;;;;5055006;28;20033;-80
2023/08/12 02:43:23;;;;;;;1.55;0.65;;;;;;;;;;5054082;28;20029;-80
2023/08/12 02:45:49;;;;;;;0.22;0.22;;;;;;;;;;5054433;28;20397;-80
2023/08/12 02:48:15;;;;;;;0.30;0.30;;;;;;;;;;5054348;28;20017;-80
2023/08/12 02:50:41;;;;;;;0.10;0.10;;;;;;;;;;5054416;28;20025;-80
2023/08/12 02:53:08;;;;;;;0.35;0.35;;;;;;;;;;5054163;28;20389;-80
2023/08/12 02:55:34;;;;;;;0.10;0.10;;;;;;;;;;5054423;28;20021;-80
2023/08/12 02:58:00;;;;;;;2.33;0.70;;;;;;;;;;5053941;28;20111;-80
2023/08/12 03:00:27;;;;;;;0.30;0.30;;;;;;;;;;5054179;28;20401;-80
2023/08/12 03:02:53;;;;;;;0.10;0.10;;;;;;;;;;5054151;28;20021;-80
2023/08/12 03:05:19;;;;;;;0.20;0.20;;;;;;;;;;5053972;28;20021;-81
2023/08/12 03:07:45;;;;;;;0.32;0.30;;;;;;;;;;5054056;28;20470;-80
2023/08/12 03:10:11;;;;;;;0.13;0.13;;;;;;;;;;5054513;28;20389;-80
2023/08/12 03:12:37;;;;;;;0.28;0.28;;;;;;;;;;5053694;28;20111;-80
2023/08/12 03:15:03;;;;;;;0.30;0.28;;;;;;;;;;5054228;28;20092;-80
2023/08/12 03:17:29;;;;;;;0.50;0.50;;;;;;;;;;5053893;28;20029;-80
2023/08/12 03:19:59;;;;;;;0.10;0.10;;;;;;;;;;5054145;28;20059;-80
2023/08/12 03:22:24;;;;;;;0.30;0.30;;;;;;;;;;5053608;28;20091;-80
2023/08/12 03:24:50;;;;;;;1.20;0.95;;;;;;;;;;5053701;28;20420;-80
2023/08/12 03:27:17;;;;;;;0.20;0.20;;;;;;;;;;5053715;28;20021;-81
2023/08/12 03:29:43;;;;;;;1.45;0.35;;;;;;;;;;5053805;28;20033;-80
2023/08/12 03:32:09;;;;;;;0.20;0.20;;;;;;;;;;5053359;28;20147;-80
2023/08/12 03:34:34;;;;;;;0.20;0.20;;;;;;;;;;5053598;28;20111;-80
2023/08/12 03:37:00;;;;;;;0.10;0.10;;;;;;;;;;5054048;28;20020;-79
2023/08/12 03:39:26;;;;;;;0.32;0.22;;;;;;;;;;5053465;28;20070;-80
2023/08/12 03:41:53;;;;;;;0.13;0.13;;;;;;;;;;5053209;28;20079;-80
2023/08/12 03:44:19;;;;;;;2.42;0.40;;;;;;;;;;5053619;28;20032;-80
2023/08/12 03:46:45;;;;;;;0.10;0.10;;;;;;;;;;5053739;28;20072;-80
2023/08/12 03:49:11;;;;;;;0.10;0.10;;;;;;;;;;5053419;28;20021;-80
2023/08/12 03:51:37;;;;;;;1.65;0.73;;;;;;;;;;5053149;28;20036;-80
2023/08/12 03:54:03;;;;;;;0.10;0.10;;;;;;;;;;5053368;28;20068;-80
2023/08/12 03:56:30;;;;;;;0.32;0.32;;;;;;;;;;5052699;28;20039;-80
2023/08/12 03:58:56;;;;;;;0.38;0.38;;;;;;;;;;5052969;28;20495;-80
2023/08/12 04:01:22;;;;;;;0.10;0.10;;;;;;;;;;5052930;28;20103;-80
2023/08/12 04:03:48;;;;;;;0.25;0.25;;;;;;;;;;5052465;28;20111;-80
2023/08/12 04:06:14;;;;;;;0.15;0.15;;;;;;;;;;5053027;28;20021;-80
2023/08/12 04:08:40;;;;;;;0.10;0.10;;;;;;;;;;5053224;28;20036;-80
2023/08/12 04:11:06;;;;;;;0.22;0.22;;;;;;;;;;5052752;28;20025;-80
2023/08/12 04:13:32;;;;;;;0.03;0.03;;;;;;;;;;5053273;28;20036;-80
2023/08/12 04:15:58;;;;;;;0.40;0.40;;;;;;;;;;5052743;28;20103;-80
2023/08/12 04:18:24;;;;;;;0.10;0.10;;;;;;;;;;5052464;28;20108;-80
2023/08/12 04:20:51;;;;;;;0.68;0.50;;;;;;;;;;5052906;28;20077;-80
2023/08/12 04:23:17;;;;;;;0.15;0.15;;;;;;;;;;5052485;28;20021;-80
2023/08/12 04:25:47;;;;;;;0.20;0.20;;;;;;;;;;5052219;28;20075;-80
2023/08/12 04:28:13;;;;;;;0.45;0.30;;;;;;;;;;5052888;28;20045;-80
2023/08/12 04:30:45;;;;;;;0.10;0.10;;;;;;;;;;5052630;28;20025;-81
2023/08/12 04:33:12;;;;;;;0.30;0.30;;;;;;;;;;5050977;28;20033;-80
2023/08/12 04:35:39;;;;;;;0.10;0.10;;;;;;;;;;5052875;28;20067;-80
2023/08/12 04:38:05;;;;;;;3.03;0.80;;;;;;;;;;5052422;28;20543;-80
2023/08/12 04:40:32;;;;;;;0.60;0.60;;;;;;;;;;5052121;28;20033;-80
2023/08/12 04:42:59;;;;;;;0.30;0.30;;;;;;;;;;5052416;28;20079;-80
2023/08/12 04:45:25;;;;;;;0.20;0.20;;;;;;;;;;5052271;28;20394;-80
2023/08/12 04:47:51;;;;;;;0.10;0.10;;;;;;;;;;5052701;28;20113;-80
2023/08/12 04:50:17;;;;;;;0.00;0.00;;;;;;;;;;5052380;28;20031;-80
2023/08/12 04:52:43;;;;;;;0.10;0.10;;;;;;;;;;5052089;28;20032;-80
2023/08/12 04:55:10;;;;;;;0.32;0.32;;;;;;;;;;5051784;28;20422;-80
2023/08/12 04:57:36;;;;;;;0.17;0.17;;;;;;;;;;5052237;28;20033;-80
2023/08/12 05:00:03;;;;;;;0.38;0.28;;;;;;;;;;5052228;28;20107;-80
2023/08/12 05:02:29;;;;;;;0.20;0.20;;;;;;;;;;5051981;28;20417;-80
2023/08/12 05:04:55;;;;;;;0.10;0.10;;;;;;;;;;5051881;28;20028;-80
2023/08/12 05:07:21;;;;;;;0.10;0.10;;;;;;;;;;5051569;28;20021;-78
2023/08/12 05:09:47;;;;;;;0.00;0.00;;;;;;;;;;5052511;28;20083;-80
2023/08/12 05:12:13;;;;;;;0.98;0.65;;;;;;;;;;5052127;28;20025;-80
2023/08/12 05:14:40;;;;;;;0.40;0.10;;;;;;;;;;5051773;28;20032;-80
2023/08/12 05:17:06;;;;;;;0.20;0.20;;;;;;;;;;5050918;28;20032;-80
2023/08/12 05:19:32;;;;;;;0.10;0.10;;;;;;;;;;5051770;28;20041;-80
2023/08/12 05:21:58;;;;;;;0.17;0.17;;;;;;;;;;5051391;28;20045;-80
2023/08/12 05:24:24;;;;;;;0.30;0.20;;;;;;;;;;5052045;28;20471;-80
2023/08/12 05:26:50;;;;;;;0.20;0.20;;;;;;;;;;5051825;28;20043;-80
2023/08/12 05:29:16;;;;;;;0.10;0.10;;;;;;;;;;5051694;28;20127;-80
2023/08/12 05:31:42;;;;;;;0.40;0.40;;;;;;;;;;5051648;28;20067;-80
2023/08/12 05:34:08;;;;;;;0.13;0.13;;;;;;;;;;5051636;28;20412;-80
2023/08/12 05:36:35;;;;;;;0.20;0.20;;;;;;;;;;5051261;28;20021;-80
2023/08/12 05:39:03;;;;;;;0.32;0.32;;;;;;;;;;5051774;28;20029;-80
2023/08/12 05:41:29;;;;;;;0.10;0.10;;;;;;;;;;5052143;28;20029;-80
2023/08/12 05:43:55;;;;;;;2.75;0.90;;;;;;;;;;5051519;28;20021;-79
2023/08/12 05:46:21;;;;;;;0.10;0.10;;;;;;;;;;5050461;28;20493;-79
2023/08/12 05:48:47;;;;;;;0.40;0.30;;;;;;;;;;5051594;28;20028;-80
2023/08/12 05:51:13;;;;;;;0.10;0.10;;;;;;;;;;5051173;28;20033;-80
2023/08/12 05:53:39;;;;;;;1.23;0.68;;;;;;;;;;5051930;28;20017;-79
2023/08/12 05:56:05;;;;;;;0.22;0.20;;;;;;;;;;5051243;28;20036;-79
2023/08/12 05:58:31;;;;;;;0.30;0.30;;;;;;;;;;5051263;28;20477;-79
2023/08/12 06:00:57;;;;;;;0.00;0.00;;;;;;;;;;5051387;28;20044;-79
2023/08/12 06:03:23;;;;;;;0.10;0.10;;;;;;;;;;5051477;28;20083;-79
2023/08/12 06:05:49;;;;;;;0.47;0.40;;;;;;;;;;5051372;28;20070;-79
2023/08/12 06:08:15;;;;;;;0.32;0.32;;;;;;;;;;5051304;28;20474;-79
2023/08/12 06:10:41;;;;;;;0.22;0.22;;;;;;;;;;5051383;28;20032;-79
2023/08/12 06:13:07;;;;;;;0.10;0.10;;;;;;;;;;5051422;28;20402;-79
2023/08/12 06:15:33;;;;;;;0.20;0.20;;;;;;;;;;5050264;28;20029;-79
2023/08/12 06:18:00;;;;;;;0.10;0.10;;;;;;;;;;5051743;28;20050;-79
2023/08/12 06:20:26;;;;;;;0.20;0.20;;;;;;;;;;5050597;28;20041;-79
2023/08/12 06:22:52;;;;;;;0.45;0.45;;;;;;;;;;5051301;28;20021;-79
2023/08/12 06:25:18;;;;;;;0.30;0.30;;;;;;;;;;5050926;28;20122;-79
2023/08/12 06:27:45;;;;;;;0.60;0.40;;;;;;;;;;5052780;28;20551;-79
2023/08/12 06:30:11;;;;;;;0.52;0.45;;;;;;;;;;5055376;28;20041;-79
2023/08/12 06:32:37;;;;;;;0.10;0.10;;;;;;;;;;5054648;28;20083;-79
2023/08/12 06:35:03;;;;;;;0.20;0.20;;;;;;;;;;5054400;28;20041;-79
2023/08/12 06:37:30;;;;;;;0.82;0.70;;;;;;;;;;5054725;28;20040;-80
2023/08/12 06:39:55;;;;;;;0.28;0.10;;;;;;;;;;5054408;28;20493;-79
2023/08/12 06:42:22;;;;;;;0.10;0.10;;;;;;;;;;5054828;28;20112;-79
2023/08/12 06:44:54;;;;;;;0.30;0.30;;;;;;;;;;5054592;28;20100;-79
2023/08/12 06:47:20;;;;;;;0.10;0.10;;;;;;;;;;5054523;28;20027;-80
2023/08/12 06:49:46;;;;;;;0.30;0.30;;;;;;;;;;5054171;28;20021;-79
2023/08/12 06:52:12;;;;;;;0.20;0.20;;;;;;;;;;5054121;28;20029;-79
2023/08/12 06:54:38;;;;;;;0.40;0.40;;;;;;;;;;5053441;28;20028;-80
2023/08/12 06:57:04;;;;;;;0.20;0.20;;;;;;;;;;5053671;28;20199;-80
2023/08/12 06:59:30;;;;;;;0.10;0.10;;;;;;;;;;5053462;28;20127;-79
2023/08/12 07:01:56;;;;;;;0.28;0.28;;;;;;;;;;5054094;28;20082;-79
2023/08/12 07:04:22;;;;;;;1.10;0.50;;;;;;;;;;5053554;28;20058;-79
2023/08/12 07:06:48;;;;;;;0.43;0.30;;;;;;;;;;5054208;28;20035;-79
2023/08/12 07:09:14;;;;;;;0.88;0.77;;;;;;;;;;5054041;28;20032;-79
2023/08/12 07:11:40;;;;;;;0.45;0.45;;;;;;;;;;5053683;28;20490;-79
2023/08/12 07:14:06;;;;;;;0.35;0.15;;;;;;;;;;5050464;28;20060;-80
2023/08/12 07:16:33;;;;;;;1.35;0.38;;;;;;;;;;5053586;28;20052;-81
2023/08/12 07:18:59;;;;;;;0.17;0.17;;;;;;;;;;5053514;28;20467;-82
2023/08/12 07:21:25;;;;;;;0.20;0.20;;;;;;;;;;5052399;28;20059;-81
2023/08/12 07:23:51;;;;;;;0.08;0.05;;;;;;;;;;5040208;28;20131;-82
2023/08/12 07:26:17;;;;;;;0.15;0.15;;;;;;;;;;5053408;28;20484;-83
2023/08/12 07:28:43;;;;;;;0.40;0.38;;;;;;;;;;5052675;28;20029;-83
2023/08/12 07:31:09;;;;;;;0.22;0.22;;;;;;;;;;5038702;28;20049;-89
2023/08/12 07:33:35;;;;;;;0.30;0.30;;;;;;;;;;5034966;28;20122;-83
2023/08/12 07:36:02;;;;;;;0.10;0.10;;;;;;;;;;5053499;28;20106;-81
2023/08/12 07:38:28;;;;;;;0.50;0.50;;;;;;;;;;5052602;28;20033;-84
2023/08/12 07:40:54;;;;;;;2.05;0.60;;;;;;;;;;5053563;28;20035;-81
2023/08/12 07:43:20;;;;;;;0.20;0.20;;;;;;;;;;5053358;28;20070;-82
2023/08/12 07:45:51;;;;;;;0.43;0.40;;;;;;;;;;5052346;28;20116;-83
2023/08/12 07:48:17;;;;;;;2.05;1.10;;;;;;;;;;5052803;28;20020;-84
2023/08/12 07:50:43;;;;;;;1.17;0.50;;;;;;;;;;5046546;28;20044;-84
2023/08/12 07:53:09;;;;;;;0.47;0.47;;;;;;;;;;5036215;28;20040;-83
2023/08/12 07:55:35;;;;;;;0.28;0.28;;;;;;;;;;5048600;28;20452;-83
2023/08/12 07:58:01;;;;;;;0.30;0.30;;;;;;;;;;5053101;28;20043;-84
2023/08/12 08:00:27;;;;;;;0.70;0.60;;;;;;;;;;5051892;28;20131;-84
2023/08/12 08:02:53;;;;;;;0.30;0.30;;;;;;;;;;5053289;28;20025;-83
2023/08/12 08:05:19;;;;;;;0.30;0.30;;;;;;;;;;5053518;28;20033;-81
2023/08/12 08:07:45;;;;;;;3.25;0.60;;;;;;;;;;5053304;28;20017;-85
2023/08/12 08:10:11;;;;;;;0.30;0.30;;;;;;;;;;5053588;28;20029;-83
2023/08/12 08:12:37;;;;;;;1.75;0.82;;;;;;;;;;5053472;28;20029;-84
2023/08/12 08:15:03;;;;;;;1.02;0.98;;;;;;;;;;5053341;28;20083;-84
2023/08/12 08:17:29;;;;;;;0.30;0.30;;;;;;;;;;5053087;28;20128;-84
2023/08/12 08:19:55;;;;;;;0.25;0.25;;;;;;;;;;5053169;28;20029;-85
2023/08/12 08:22:21;;;;;;;0.28;0.28;;;;;;;;;;5053030;28;20052;-83
2023/08/12 08:24:47;;;;;;;0.30;0.30;;;;;;;;;;5051756;28;20346;-82
2023/08/12 08:27:14;;;;;;;0.15;0.15;;;;;;;;;;5053148;28;20032;-82
2023/08/12 08:29:40;;;;;;;0.38;0.38;;;;;;;;;;5053199;28;20029;-82
2023/08/12 08:32:06;;;;;;;0.50;0.50;;;;;;;;;;5052572;28;20028;-84
2023/08/12 08:34:32;;;;;;;0.32;0.32;;;;;;;;;;5053060;28;20507;-84
2023/08/12 08:36:58;;;;;;;0.20;0.20;;;;;;;;;;5052973;28;20021;-86
2023/08/12 08:39:24;;;;;;;0.38;0.38;;;;;;;;;;5052800;28;20032;-81
2023/08/12 08:41:53;;;;;;;1.00;0.50;;;;;;;;;;5052807;28;20043;-84
2023/08/12 08:44:22;;;;;;;0.60;0.60;;;;;;;;;;5052948;28;20064;-85
2023/08/12 08:46:50;;;;;;;0.10;0.10;;;;;;;;;;5052561;28;20462;-84
2023/08/12 08:49:16;;;;;;;0.70;0.38;;;;;;;;;;5052745;28;20029;-82
2023/08/12 08:51:43;;;;;;;0.55;0.47;;;;;;;;;;5052505;28;20071;-83
2023/08/12 08:54:09;;;;;;;0.50;0.50;;;;;;;;;;5045643;28;20036;-82
2023/08/12 08:56:35;;;;;;;0.75;0.47;;;;;;;;;;5038076;28;20020;-87
2023/08/12 08:59:01;;;;;;;0.20;0.20;;;;;;;;;;5052565;28;20508;-85
2023/08/12 09:01:29;;;;;;;0.25;0.25;;;;;;;;;;5052476;28;20086;-82
2023/08/12 09:03:56;;;;;;;0.40;0.28;;;;;;;;;;5052294;28;20029;-82
2023/08/12 09:06:22;;;;;;;0.57;0.57;;;;;;;;;;5051977;28;20037;-83
2023/08/12 09:08:49;;;;;;;0.35;0.35;;;;;;;;;;5052482;28;20033;-92
2023/08/12 09:11:17;;;;;;;1.33;0.88;;;;;;;;;;5053170;28;20146;-83
2023/08/12 09:13:43;;;;;;;0.30;0.30;;;;;;;;;;5053845;28;20040;-95
2023/08/12 09:16:09;;;;;;;0.40;0.40;;;;;;;;;;5050093;28;20030;-87
2023/08/12 09:18:36;;;;;;;0.32;0.32;;;;;;;;;;5051129;28;20032;-88
2023/08/12 09:21:02;;;;;;;0.60;0.60;;;;;;;;;;5052232;28;20571;-86
2023/08/12 09:23:28;;;;;;;0.43;0.40;;;;;;;;;;5050518;28;20051;-85
2023/08/12 09:25:54;;;;;;;0.20;0.20;;;;;;;;;;5051751;28;20548;-84
2023/08/12 09:28:20;;;;;;;0.50;0.50;;;;;;;;;;5051608;28;20112;-85
2023/08/12 09:30:55;;;;;;;1.05;0.70;;;;;;;;;;5052324;28;20028;-84
2023/08/12 09:33:28;;;;;;;0.40;0.30;;;;;;;;;;5050440;28;20040;-88
2023/08/12 09:35:54;;;;;;;0.60;0.60;;;;;;;;;;5052321;28;20503;-88
2023/08/12 09:38:21;;;;;;;0.32;0.32;;;;;;;;;;5052141;28;20033;-86
2023/08/12 09:40:48;;;;;;;0.30;0.30;;;;;;;;;;5051692;28;20135;-87
2023/08/12 09:43:16;;;;;;;0.43;0.43;;;;;;;;;;5051261;28;20025;-89
2023/08/12 09:45:44;;;;;;;0.17;0.17;;;;;;;;;;5047139;28;20059;-87
2023/08/12 09:48:10;;;;;;;1.15;0.32;;;;;;;;;;5032383;28;20064;-84
2023/08/12 09:50:36;;;;;;;0.60;0.60;;;;;;;;;;5035731;28;20029;-84
2023/08/12 09:53:03;;;;;;;0.47;0.35;;;;;;;;;;5051858;28;20025;-86
2023/08/12 09:55:30;;;;;;;0.50;0.50;;;;;;;;;;5051877;28;20406;-85
2023/08/12 09:57:57;;;;;;;0.40;0.40;;;;;;;;;;5049779;28;20018;-82
2023/08/12 10:00:23;;;;;;;0.43;0.43;;;;;;;;;;5051121;28;20041;-81
2023/08/12 10:02:54;;;;;;;0.28;0.20;;;;;;;;;;5052939;28;20091;-81
2023/08/12 10:05:26;;;;;;;0.30;0.30;;;;;;;;;;5044492;28;20017;-81
2023/08/12 10:07:53;;;;;;;0.10;0.10;;;;;;;;;;5051940;28;20029;-84
2023/08/12 10:10:19;;;;;;;0.50;0.50;;;;;;;;;;5052121;28;20052;-79
2023/08/12 10:12:46;;;;;;;1.40;0.82;;;;;;;;;;5055259;28;20025;-81
2023/08/12 10:15:12;;;;;;;0.30;0.30;;;;;;;;;;5055617;28;20056;-80
2023/08/12 10:17:39;;;;;;;1.10;0.77;;;;;;;;;;5049212;28;20067;-80
2023/08/12 10:20:06;;;;;;;1.20;0.85;;;;;;;;;;5055156;28;20045;-81
2023/08/12 10:22:33;;;;;;;0.45;0.45;;;;;;;;;;5038540;28;20025;-81
2023/08/12 10:24:59;;;;;;;0.70;0.70;;;;;;;;;;5049305;28;20063;-80
2023/08/12 10:27:26;;;;;;;0.55;0.47;;;;;;;;;;5047317;28;20029;-80
2023/08/12 10:29:52;;;;;;;0.32;0.32;;;;;;;;;;5035487;28;20410;-80
2023/08/12 10:32:18;;;;;;;0.70;0.70;;;;;;;;;;5049346;28;20021;-80
2023/08/12 10:34:44;;;;;;;0.28;0.28;;;;;;;;;;5055224;28;20063;-80
2023/08/12 10:37:11;;;;;;;0.47;0.47;;;;;;;;;;5054757;28;20021;-80
2023/08/12 10:39:38;;;;;;;0.63;0.47;;;;;;;;;;5050124;28;20069;-80
2023/08/12 10:42:04;;;;;;;0.65;0.47;;;;;;;;;;5054035;28;20037;-79
2023/08/12 10:44:41;;;;;;;0.55;0.55;;;;;;;;;;5051248;28;20057;-79
2023/08/12 10:47:11;;;;;;;0.10;0.10;;;;;;;;;;5041676;28;20025;-79
2023/08/12 10:49:43;;;;;;;0.52;0.52;;;;;;;;;;5055307;28;20401;-79
2023/08/12 10:52:20;;;;;;;0.90;0.68;;;;;;;;;;5050130;28;20045;-79
2023/08/12 10:54:46;;;;;;;1.00;0.75;;;;;;;;;;5054568;28;20032;-79
2023/08/12 10:57:12;;;;;;;0.32;0.32;;;;;;;;;;5054555;28;20100;-79
2023/08/12 10:59:47;;;;;;;0.57;0.52;;;;;;;;;;5054497;28;20401;-79
2023/08/12 11:02:23;;;;;;;0.30;0.30;;;;;;;;;;5049561;28;20032;-79
2023/08/12 11:04:53;;;;;;;0.98;0.85;;;;;;;;;;5054629;28;20155;-79
2023/08/12 11:07:20;;;;;;;0.75;0.52;;;;;;;;;;5054755;28;20032;-79
2023/08/12 11:09:46;;;;;;;1.52;0.75;;;;;;;;;;5054062;28;20378;-79
2023/08/12 11:12:18;;;;;;;0.40;0.40;;;;;;;;;;5049748;28;20390;-79
2023/08/12 11:14:49;;;;;;;2.20;0.85;;;;;;;;;;5047523;28;20447;-79
2023/08/12 11:17:15;;;;;;;0.50;0.50;;;;;;;;;;5045596;28;20021;-79
2023/08/12 11:19:42;;;;;;;0.22;0.22;;;;;;;;;;5034438;28;20029;-79
2023/08/12 11:22:09;;;;;;;0.45;0.45;;;;;;;;;;5033456;28;20065;-79
2023/08/12 11:24:36;;;;;;;0.50;0.50;;;;;;;;;;5048134;28;20032;-79
2023/08/12 11:27:03;;;;;;;0.68;0.40;;;;;;;;;;5037007;28;20033;-79
2023/08/12 11:29:29;;;;;;;0.43;0.43;;;;;;;;;;5033169;28;20021;-79
2023/08/12 11:31:55;;;;;;;0.22;0.22;;;;;;;;;;5048617;28;20090;-79
2023/08/12 11:34:21;;;;;;;0.73;0.50;;;;;;;;;;5047888;28;20436;-79
2023/08/12 11:36:47;;;;;;;3.33;0.77;;;;;;;;;;5053255;28;20432;-80
2023/08/12 11:39:13;;;;;;;0.63;0.63;;;;;;;;;;5052371;28;20037;-81
2023/08/12 11:41:39;;;;;;;0.60;0.60;;;;;;;;;;5053238;28;20033;-78
2023/08/12 11:44:05;;;;;;;1.30;0.85;;;;;;;;;;5052326;28;20090;-78
2023/08/12 11:46:33;;;;;;;0.40;0.40;;;;;;;;;;5052377;28;20025;-78
2023/08/12 11:48:59;;;;;;;0.68;0.68;;;;;;;;;;5053066;28;20021;-77
2023/08/12 11:51:25;;;;;;;0.52;0.30;;;;;;;;;;5052554;28;20039;-77
2023/08/12 11:53:51;;;;;;;1.73;0.93;;;;;;;;;;5052638;28;20029;-81
2023/08/12 11:56:20;;;;;;;0.40;0.40;;;;;;;;;;5052699;28;20082;-82
2023/08/12 11:58:50;;;;;;;0.52;0.52;;;;;;;;;;5052331;28;20106;-77
2023/08/12 12:01:16;;;;;;;1.08;0.60;;;;;;;;;;5052853;28;20028;-79
2023/08/12 12:03:42;;;;;;;0.32;0.32;;;;;;;;;;5047819;28;20028;-80
2023/08/12 12:06:08;;;;;;;2.25;0.63;;;;;;;;;;5054136;28;20037;-79
2023/08/12 12:08:34;;;;;;;0.15;0.15;;;;;;;;;;5047713;28;20075;-79
2023/08/12 12:11:06;;;;;;;0.38;0.38;;;;;;;;;;5032525;28;20468;-80
2023/08/12 12:13:32;;;;;;;0.30;0.30;;;;;;;;;;5031660;28;20029;-80
2023/08/12 12:15:58;;;;;;;0.40;0.40;;;;;;;;;;5032462;28;20386;-80
2023/08/12 12:18:26;;;;;;;0.32;0.32;;;;;;;;;;5032695;28;20032;-80
2023/08/12 12:20:55;;;;;;;0.20;0.20;;;;;;;;;;5008546;28;1156760;-80
2023/08/12 12:23:22;;;;;;;0.52;0.52;;;;;;;;;;5052754;28;20082;-79
2023/08/12 12:25:48;;;;;;;0.30;0.30;;;;;;;;;;5052712;28;20029;-80
2023/08/12 12:28:14;;;;;;;0.25;0.25;;;;;;;;;;5051885;28;20056;-80
2023/08/12 12:30:40;;;;;;;0.20;0.20;;;;;;;;;;5052860;28;20025;-80
2023/08/12 12:33:06;;;;;;;0.35;0.20;;;;;;;;;;5052839;28;20086;-80
2023/08/12 12:35:32;;;;;;;0.30;0.30;;;;;;;;;;5036851;28;20028;-80
2023/08/12 12:37:58;;;;;;;0.30;0.30;;;;;;;;;;5032796;28;20029;-80
2023/08/12 12:40:24;;;;;;;0.70;0.40;;;;;;;;;;5032864;28;20037;-79
2023/08/12 12:42:50;;;;;;;0.30;0.30;;;;;;;;;;5032954;28;20048;-80
2023/08/12 12:45:16;;;;;;;0.32;0.32;;;;;;;;;;5032725;28;20116;-80
2023/08/12 12:47:42;;;;;;;0.25;0.25;;;;;;;;;;5032755;28;20452;-79
2023/08/12 12:50:08;;;;;;;0.25;0.25;;;;;;;;;;5040531;28;20055;-79
2023/08/12 12:52:34;;;;;;;6.80;1.33;;;;;;;;;;5051938;28;20032;-76
2023/08/12 12:55:00;;;;;;;0.17;0.17;;;;;;;;;;5052957;28;20116;-80
2023/08/12 12:57:26;;;;;;;1.33;0.75;;;;;;;;;;5051367;28;20032;-79
2023/08/12 12:59:53;;;;;;;0.20;0.20;;;;;;;;;;5051549;28;20036;-79
2023/08/12 13:02:19;;;;;;;0.25;0.25;;;;;;;;;;5052546;28;20489;-80
2023/08/12 13:04:45;;;;;;;0.10;0.10;;;;;;;;;;5052732;28;20036;-79
2023/08/12 13:07:11;;;;;;;0.00;0.00;;;;;;;;;;5052299;28;20028;-79
2023/08/12 13:09:37;;;;;;;0.28;0.28;;;;;;;;;;5052676;28;20033;-80
2023/08/12 13:12:03;;;;;;;0.63;0.32;;;;;;;;;;5052430;28;20075;-80
2023/08/12 13:14:30;;;;;;;0.20;0.20;;;;;;;;;;5052675;28;20032;-79
2023/08/12 13:16:56;;;;;;;0.30;0.30;;;;;;;;;;5052543;28;20055;-80
2023/08/12 13:19:22;;;;;;;0.10;0.10;;;;;;;;;;5052532;28;20087;-80
2023/08/12 13:21:48;;;;;;;0.00;0.00;;;;;;;;;;5051932;28;20107;-80
2023/08/12 13:24:15;;;;;;;0.30;0.30;;;;;;;;;;5052186;28;20032;-78
2023/08/12 13:26:41;;;;;;;0.28;0.28;;;;;;;;;;5052410;28;20036;-80
2023/08/12 13:29:07;;;;;;;1.08;0.28;;;;;;;;;;5052367;28;20025;-79
2023/08/12 13:31:33;;;;;;;0.25;0.25;;;;;;;;;;5052431;28;20057;-79
2023/08/12 13:33:59;;;;;;;0.22;0.22;;;;;;;;;;5052309;28;20043;-79
2023/08/12 13:36:25;;;;;;;0.43;0.43;;;;;;;;;;5052162;28;20029;-80
2023/08/12 13:38:51;;;;;;;0.03;0.03;;;;;;;;;;5056109;28;20096;-79
2023/08/12 13:41:17;;;;;;;0.20;0.20;;;;;;;;;;5056441;28;20497;-79
2023/08/12 13:43:43;;;;;;;0.10;0.10;;;;;;;;;;5056418;28;20025;-79
2023/08/12 13:46:09;;;;;;;0.20;0.20;;;;;;;;;;5056344;28;20132;-79
2023/08/12 13:48:35;;;;;;;0.20;0.20;;;;;;;;;;5056272;28;20031;-79
2023/08/12 13:51:01;;;;;;;0.22;0.22;;;;;;;;;;5055881;28;20025;-79
2023/08/12 13:53:27;;;;;;;0.30;0.30;;;;;;;;;;5056236;28;20036;-79
2023/08/12 13:55:53;;;;;;;0.32;0.32;;;;;;;;;;5056075;28;20044;-79
2023/08/12 13:58:19;;;;;;;0.20;0.20;;;;;;;;;;5056131;28;20465;-79
2023/08/12 14:00:46;;;;;;;0.30;0.20;;;;;;;;;;5055845;28;20061;-79
2023/08/12 14:03:12;;;;;;;0.30;0.30;;;;;;;;;;5056173;28;20032;-79
2023/08/12 14:05:38;;;;;;;0.63;0.20;;;;;;;;;;5055477;28;20028;-79
2023/08/12 14:08:04;;;;;;;0.35;0.20;;;;;;;;;;5055903;28;20025;-79
2023/08/12 14:10:30;;;;;;;1.85;0.85;;;;;;;;;;5055910;28;20061;-79
2023/08/12 14:12:56;;;;;;;1.55;0.47;;;;;;;;;;5055844;28;20029;-79
2023/08/12 14:15:22;;;;;;;0.22;0.20;;;;;;;;;;5055622;28;20498;-81
2023/08/12 14:17:48;;;;;;;0.10;0.10;;;;;;;;;;5055632;28;20032;-81
2023/08/12 14:20:15;;;;;;;1.40;0.40;;;;;;;;;;5054906;28;20040;-81
2023/08/12 14:22:41;;;;;;;1.00;0.65;;;;;;;;;;5055491;28;20031;-82
2023/08/12 14:25:07;;;;;;;0.30;0.30;;;;;;;;;;5055446;28;20035;-81
2023/08/12 14:27:33;;;;;;;0.57;0.30;;;;;;;;;;5055587;28;20029;-84
2023/08/12 14:29:59;;;;;;;0.20;0.20;;;;;;;;;;5055567;28;20223;-84
2023/08/12 14:32:25;;;;;;;0.38;0.38;;;;;;;;;;5055383;28;20108;-81
2023/08/12 14:34:51;;;;;;;0.22;0.22;;;;;;;;;;5055218;28;20468;-81
2023/08/12 14:37:17;;;;;;;0.10;0.10;;;;;;;;;;5055426;28;20028;-81
2023/08/12 14:39:43;;;;;;;0.32;0.32;;;;;;;;;;5055125;28;20029;-79